createdAt,value
2022-12-17T00:00:29.049Z,16.60
2022-12-17T00:03:18.088Z,17.83
2022-12-17T00:06:03.897Z,17.53
2022-12-17T00:08:49.654Z,16.77
2022-12-17T00:11:35.032Z,20.13
2022-12-17T00:14:22.226Z,17.63
2022-12-17T00:17:08.007Z,20.97
2022-12-17T00:19:53.544Z,18.93
2022-12-17T00:22:41.409Z,19.03
2022-12-17T00:25:27.505Z,20.03
2022-12-17T00:28:12.845Z,19.23
2022-12-17T00:31:00.074Z,20.50
2022-12-17T00:33:45.693Z,20.60
2022-12-17T00:36:30.819Z,18.20
2022-12-17T00:39:16.584Z,18.93
2022-12-17T00:42:07.506Z,16.10
2022-12-17T00:44:52.936Z,20.27
2022-12-17T00:47:40.971Z,16.10
2022-12-17T00:50:27.623Z,21.23
2022-12-17T00:53:13.596Z,19.17
2022-12-17T00:55:59.096Z,28.27
2022-12-17T00:58:44.530Z,20.30
2022-12-17T01:01:30.803Z,21.73
2022-12-17T01:04:18.726Z,22.80
2022-12-17T01:07:04.746Z,21.97
2022-12-17T01:09:49.913Z,18.77
2022-12-17T01:12:35.507Z,19.00
2022-12-17T01:15:20.769Z,19.47
2022-12-17T01:18:20.651Z,22.10
2022-12-17T01:21:07.589Z,24.23
2022-12-17T01:23:52.911Z,19.57
2022-12-17T01:26:38.587Z,15.57
2022-12-17T01:29:25.396Z,18.27
2022-12-17T01:32:11.272Z,23.53
2022-12-17T01:34:56.600Z,23.47
2022-12-17T01:37:43.659Z,21.77
2022-12-17T01:40:30.372Z,22.50
2022-12-17T01:43:23.363Z,24.57
2022-12-17T01:46:08.882Z,20.30
2022-12-17T01:49:13.101Z,20.90
2022-12-17T01:51:58.538Z,20.90
2022-12-17T01:54:45.699Z,17.57
2022-12-17T01:57:31.490Z,16.17
2022-12-17T02:00:20.201Z,22.50
2022-12-17T02:03:05.523Z,21.87
2022-12-17T02:05:56.694Z,19.77
2022-12-17T02:08:53.092Z,21.20
2022-12-17T02:11:52.198Z,18.17
2022-12-17T02:14:43.174Z,18.27
2022-12-17T02:17:39.252Z,19.70
2022-12-17T02:20:38.820Z,21.93
2022-12-17T02:23:37.796Z,19.27
2022-12-17T02:26:30.384Z,24.97
2022-12-17T02:29:20.789Z,23.83
2022-12-17T02:32:07.465Z,20.53
2022-12-17T02:35:02.508Z,21.77
2022-12-17T02:37:50.151Z,28.47
2022-12-17T02:40:37.459Z,17.47
2022-12-17T02:43:23.899Z,19.50
2022-12-17T02:46:11.241Z,18.20
2022-12-17T02:48:56.685Z,21.90
2022-12-17T02:51:57.719Z,16.93
2022-12-17T02:54:47.671Z,18.07
2022-12-17T02:57:33.268Z,24.93
2022-12-17T03:00:18.361Z,21.03
2022-12-17T03:03:07.280Z,16.03
2022-12-17T03:05:52.746Z,29.20
2022-12-17T03:08:37.874Z,19.73
2022-12-17T03:11:26.635Z,22.93
2022-12-17T03:14:23.501Z,18.90
2022-12-17T03:17:09.232Z,22.27
2022-12-17T03:19:55.824Z,18.37
2022-12-17T03:22:41.150Z,17.60
2022-12-17T03:25:27.700Z,19.30
2022-12-17T03:31:48.447Z,18.80
2022-12-17T03:34:33.737Z,20.20
2022-12-17T03:37:21.323Z,23.07
2022-12-17T03:40:06.402Z,21.00
2022-12-17T03:42:52.055Z,25.27
2022-12-17T03:45:37.759Z,24.80
2022-12-17T03:48:25.169Z,22.50
2022-12-17T03:51:11.739Z,27.20
2022-12-17T03:53:59.507Z,20.77
2022-12-17T03:56:44.704Z,23.90
2022-12-17T03:59:30.111Z,28.77
2022-12-17T04:02:16.753Z,22.07
2022-12-17T04:05:02.495Z,23.97
2022-12-17T04:07:48.239Z,24.93
2022-12-17T04:10:34.816Z,29.00
2022-12-17T04:13:20.707Z,27.50
2022-12-17T04:16:06.526Z,19.00
2022-12-17T04:18:51.665Z,21.50
2022-12-17T04:21:37.221Z,20.23
2022-12-17T04:24:22.414Z,28.73
2022-12-17T04:27:09.054Z,23.97
2022-12-17T04:29:55.368Z,20.07
2022-12-17T04:32:40.750Z,29.07
2022-12-17T04:35:27.109Z,19.17
2022-12-17T04:38:12.342Z,22.73
2022-12-17T04:40:58.163Z,23.30
2022-12-17T04:43:44.614Z,20.10
2022-12-17T04:46:32.650Z,24.60
2022-12-17T04:49:18.238Z,24.47
2022-12-17T04:52:04.205Z,26.70
2022-12-17T04:54:49.394Z,18.60
2022-12-17T04:57:34.856Z,19.40
2022-12-17T05:00:21.483Z,21.27
2022-12-17T05:03:07.130Z,24.63
2022-12-17T05:05:52.755Z,24.57
2022-12-17T05:08:41.437Z,23.17
2022-12-17T05:11:27.061Z,28.10
2022-12-17T05:14:12.843Z,28.00
2022-12-17T05:16:59.534Z,21.17
2022-12-17T05:19:44.731Z,29.30
2022-12-17T05:22:30.219Z,25.90
2022-12-17T05:25:15.693Z,24.27
2022-12-17T05:28:01.496Z,25.23
2022-12-17T05:30:46.801Z,25.70
2022-12-17T05:33:34.399Z,26.43
2022-12-17T05:36:20.424Z,22.80
2022-12-17T05:39:06.426Z,25.83
2022-12-17T05:42:00.537Z,26.17
2022-12-17T05:44:45.989Z,28.57
2022-12-17T05:47:31.112Z,23.33
2022-12-17T05:50:17.735Z,24.33
2022-12-17T05:53:03.247Z,24.57
2022-12-17T05:55:48.504Z,27.30
2022-12-17T05:58:33.739Z,26.17
2022-12-17T06:01:23.875Z,29.17
2022-12-17T06:04:09.626Z,32.17
2022-12-17T06:06:56.044Z,32.20
2022-12-17T06:09:41.444Z,32.83
2022-12-17T06:12:27.368Z,31.43
2022-12-17T06:15:13.331Z,33.60
2022-12-17T06:17:58.384Z,32.30
2022-12-17T06:20:44.287Z,27.00
2022-12-17T06:23:30.758Z,37.23
2022-12-17T06:26:16.696Z,29.43
2022-12-17T06:29:02.911Z,30.83
2022-12-17T06:31:48.892Z,24.87
2022-12-17T06:34:34.384Z,34.77
2022-12-17T06:37:19.507Z,33.90
2022-12-17T06:40:06.385Z,38.97
2022-12-17T06:42:51.732Z,29.40
2022-12-17T06:45:37.283Z,33.73
2022-12-17T06:48:27.358Z,29.83
2022-12-17T06:51:12.822Z,22.23
2022-12-17T06:53:59.087Z,26.23
2022-12-17T06:56:45.569Z,26.60
2022-12-17T06:59:31.076Z,29.07
2022-12-17T07:02:16.588Z,25.20
2022-12-17T07:05:01.674Z,33.33
2022-12-17T07:07:47.672Z,29.90
2022-12-17T07:10:33.025Z,35.33
2022-12-17T07:13:24.546Z,24.57
2022-12-17T07:16:10.843Z,19.53
2022-12-17T07:18:56.310Z,36.20
2022-12-17T07:21:41.557Z,24.07
2022-12-17T07:24:27.791Z,29.33
2022-12-17T07:27:15.371Z,31.57
2022-12-17T07:30:02.778Z,29.63
2022-12-17T07:32:48.273Z,33.43
2022-12-17T07:35:33.787Z,26.33
2022-12-17T07:38:20.495Z,28.60
2022-12-17T07:41:05.967Z,27.33
2022-12-17T07:43:53.142Z,29.30
2022-12-17T07:46:40.019Z,26.97
2022-12-17T07:49:26.337Z,31.40
2022-12-17T07:52:11.837Z,22.27
2022-12-17T07:54:57.328Z,23.63
2022-12-17T07:57:43.357Z,29.30
2022-12-17T08:00:29.331Z,25.93
2022-12-17T08:03:19.459Z,30.40
2022-12-17T08:06:05.027Z,27.23
2022-12-17T08:08:50.261Z,29.47
2022-12-17T08:11:35.696Z,21.47
2022-12-17T08:14:21.082Z,27.10
2022-12-17T08:17:06.977Z,32.50
2022-12-17T08:19:53.500Z,24.40
2022-12-17T08:22:38.776Z,23.80
2022-12-17T08:25:24.693Z,24.67
2022-12-17T08:28:33.903Z,22.97
2022-12-17T08:31:19.841Z,27.60
2022-12-17T08:34:08.047Z,23.50
2022-12-17T08:36:55.022Z,34.67
2022-12-17T08:39:40.501Z,31.70
2022-12-17T08:42:25.511Z,33.13
2022-12-17T08:45:11.386Z,38.57
2022-12-17T08:48:02.188Z,31.97
2022-12-17T08:50:49.664Z,33.20
2022-12-17T08:53:36.839Z,31.33
2022-12-17T08:56:22.980Z,41.67
2022-12-17T08:59:09.559Z,28.97
2022-12-17T09:01:51.181Z,28.90
2022-12-17T09:04:37.420Z,28.60
2022-12-17T09:07:22.870Z,31.07
2022-12-17T09:10:09.756Z,35.20
2022-12-17T09:12:58.571Z,32.33
2022-12-17T09:15:46.521Z,36.70
2022-12-17T09:18:31.897Z,33.07
2022-12-17T09:21:17.196Z,36.27
2022-12-17T09:24:02.547Z,32.30
2022-12-17T09:26:49.607Z,34.47
2022-12-17T09:29:34.788Z,36.93
2022-12-17T09:32:20.308Z,36.87
2022-12-17T09:35:06.144Z,33.43
2022-12-17T09:37:51.923Z,31.63
2022-12-17T09:40:41.376Z,39.30
2022-12-17T09:43:42.793Z,41.60
2022-12-17T09:46:38.451Z,41.13
2022-12-17T09:49:36.897Z,35.50
2022-12-17T09:52:33.380Z,33.97
2022-12-17T09:55:21.577Z,46.53
2022-12-17T09:58:08.930Z,46.70
2022-12-17T10:01:00.738Z,35.83
2022-12-17T10:03:48.471Z,38.27
2022-12-17T10:06:37.527Z,37.37
2022-12-17T10:09:30.598Z,32.50
2022-12-17T10:12:18.479Z,35.77
2022-12-17T10:15:04.455Z,41.53
2022-12-17T10:17:59.501Z,34.67
2022-12-17T10:20:51.244Z,37.97
2022-12-17T10:23:44.141Z,30.60
2022-12-17T10:26:35.805Z,31.40
2022-12-17T10:29:24.462Z,36.67
2022-12-17T10:32:10.888Z,36.50
2022-12-17T10:35:03.367Z,39.43
2022-12-17T10:37:53.571Z,30.27
2022-12-17T10:40:44.397Z,33.80
2022-12-17T10:43:44.070Z,37.67
2022-12-17T10:46:30.391Z,40.47
2022-12-17T10:49:23.272Z,34.77
2022-12-17T10:52:10.047Z,32.97
2022-12-17T10:54:55.304Z,37.10
2022-12-17T10:57:46.363Z,40.97
2022-12-17T11:00:50.176Z,41.10
2022-12-17T11:03:49.196Z,41.37
2022-12-17T11:06:42.774Z,37.27
2022-12-17T11:09:46.636Z,36.27
2022-12-17T11:12:34.555Z,45.10
2022-12-17T11:15:28.064Z,40.23
2022-12-17T11:18:14.703Z,37.10
2022-12-17T11:21:08.695Z,41.07
2022-12-17T11:23:58.584Z,33.53
2022-12-17T11:26:49.171Z,34.17
2022-12-17T11:29:35.013Z,40.80
2022-12-17T11:32:45.306Z,43.60
2022-12-17T11:35:38.225Z,35.07
2022-12-17T11:38:34.466Z,37.60
2022-12-17T11:41:31.627Z,37.90
2022-12-17T11:44:24.952Z,38.03
2022-12-17T11:47:19.897Z,39.23
2022-12-17T11:50:14.212Z,35.07
2022-12-17T11:53:08.101Z,39.10
2022-12-17T11:55:59.699Z,40.10
2022-12-17T11:58:55.615Z,34.70
2022-12-17T12:01:50.743Z,36.17
2022-12-17T12:04:51.160Z,40.27
2022-12-17T12:07:47.061Z,43.27
2022-12-17T12:10:40.884Z,40.97
2022-12-17T12:13:38.988Z,45.07
2022-12-17T12:16:33.243Z,38.23
2022-12-17T12:19:30.186Z,33.33
2022-12-17T12:22:25.939Z,35.03
2022-12-17T12:25:25.419Z,33.17
2022-12-17T12:28:16.299Z,34.37
2022-12-17T12:31:12.956Z,39.83
2022-12-17T12:34:06.110Z,39.13
2022-12-17T12:36:54.589Z,37.03
2022-12-17T12:39:48.724Z,45.67
2022-12-17T12:42:42.511Z,41.83
2022-12-17T12:45:48.386Z,38.20
2022-12-17T12:48:46.173Z,46.13
2022-12-17T12:51:37.705Z,40.00
2022-12-17T12:54:41.379Z,43.80
2022-12-17T12:57:48.401Z,42.87
2022-12-17T13:00:47.670Z,39.10
2022-12-17T13:03:39.913Z,40.03
2022-12-17T13:06:07.984Z,42.93
2022-12-17T13:08:36.414Z,43.20
2022-12-17T13:11:28.277Z,46.97
2022-12-17T13:14:05.727Z,41.80
2022-12-17T13:16:42.864Z,42.17
2022-12-17T13:19:21.493Z,47.43
2022-12-17T13:21:49.445Z,43.10
2022-12-17T13:24:26.095Z,48.13
2022-12-17T13:26:55.069Z,40.47
2022-12-17T13:29:28.954Z,50.57
2022-12-17T13:32:07.975Z,49.63
2022-12-17T13:34:46.960Z,47.33
2022-12-17T13:37:24.738Z,46.63
2022-12-17T13:40:00.715Z,47.00
2022-12-17T13:42:32.801Z,48.63
2022-12-17T13:45:01.237Z,45.07
2022-12-17T13:47:33.192Z,48.83
2022-12-17T13:52:50.613Z,40.47
2022-12-17T13:55:22.080Z,40.03
2022-12-17T13:57:52.742Z,46.00
2022-12-17T14:00:22.951Z,40.37
2022-12-17T14:02:51.539Z,44.10
2022-12-17T14:05:27.144Z,42.17
2022-12-17T14:07:55.851Z,42.70
2022-12-17T14:10:23.757Z,43.07
2022-12-17T14:12:52.114Z,53.53
2022-12-17T14:15:26.950Z,49.23
2022-12-17T14:17:56.487Z,43.40
2022-12-17T14:20:26.817Z,43.17
2022-12-17T14:22:58.006Z,45.80
2022-12-17T14:25:32.814Z,50.47
2022-12-17T14:28:04.838Z,43.10
2022-12-17T14:30:42.889Z,53.80
2022-12-17T14:33:27.628Z,49.80
2022-12-17T14:35:56.464Z,51.83
2022-12-17T14:38:37.545Z,50.60
2022-12-17T14:41:31.433Z,47.33
2022-12-17T14:44:01.965Z,44.30
2022-12-17T14:46:31.851Z,43.73
2022-12-17T14:49:04.801Z,47.10
2022-12-17T14:51:35.750Z,48.53
2022-12-17T14:54:29.069Z,48.37
2022-12-17T14:56:58.228Z,43.40
2022-12-17T14:59:32.507Z,45.33
2022-12-17T15:02:04.378Z,53.90
2022-12-17T15:04:33.204Z,43.43
2022-12-17T15:07:00.894Z,48.23
2022-12-17T15:09:28.842Z,42.77
2022-12-17T15:11:57.420Z,40.30
2022-12-17T15:14:25.231Z,48.67
2022-12-17T15:16:55.774Z,46.57
2022-12-17T15:19:23.859Z,39.27
2022-12-17T15:21:51.547Z,41.33
2022-12-17T15:24:21.922Z,47.07
2022-12-17T15:26:50.031Z,47.43
2022-12-17T15:29:17.800Z,41.60
2022-12-17T15:31:45.438Z,44.30
2022-12-17T15:34:14.426Z,46.73
2022-12-17T15:36:42.531Z,45.00
2022-12-17T15:39:10.123Z,43.77
2022-12-17T15:41:57.804Z,42.50
2022-12-17T15:44:25.905Z,42.83
2022-12-17T15:46:53.656Z,47.73
2022-12-17T15:49:22.849Z,42.37
2022-12-17T15:51:50.589Z,53.70
2022-12-17T15:54:18.600Z,39.50
2022-12-17T15:56:53.050Z,50.30
2022-12-17T15:59:22.776Z,52.70
2022-12-17T16:01:50.705Z,46.70
2022-12-17T16:04:24.628Z,42.67
2022-12-17T16:06:54.447Z,49.70
2022-12-17T16:09:24.434Z,52.20
2022-12-17T16:11:55.368Z,52.13
2022-12-17T16:14:23.582Z,43.53
2022-12-17T16:16:52.638Z,47.43
2022-12-17T16:19:20.259Z,51.43
2022-12-17T16:21:47.904Z,53.93
2022-12-17T16:24:17.319Z,60.23
2022-12-17T16:26:44.956Z,50.20
2022-12-17T16:29:12.790Z,69.97
2022-12-17T16:31:40.858Z,52.53
2022-12-17T16:34:09.761Z,70.03
2022-12-17T16:36:37.800Z,56.63
2022-12-17T16:39:06.644Z,61.60
2022-12-17T16:41:35.654Z,60.73
2022-12-17T16:44:04.288Z,55.70
2022-12-17T16:46:33.890Z,52.40
2022-12-17T16:49:06.347Z,54.63
2022-12-17T16:51:34.908Z,54.97
2022-12-17T16:54:06.413Z,50.00
2022-12-17T16:56:39.983Z,58.57
2022-12-17T16:59:10.132Z,70.03
2022-12-17T17:01:39.048Z,63.13
2022-12-17T17:04:08.867Z,55.87
2022-12-17T17:06:39.557Z,60.57
2022-12-17T17:09:07.849Z,57.70
2022-12-17T17:11:36.883Z,60.33
2022-12-17T17:14:05.434Z,56.87
2022-12-17T17:16:34.122Z,55.70
2022-12-17T17:19:02.424Z,56.00
2022-12-17T17:21:31.652Z,54.00
2022-12-17T17:24:01.524Z,49.33
2022-12-17T17:26:31.796Z,52.43
2022-12-17T17:29:01.464Z,59.47
2022-12-17T17:34:17.975Z,54.33
2022-12-17T17:36:45.809Z,58.73
2022-12-17T17:39:13.426Z,54.77
2022-12-17T17:41:41.201Z,53.47
2022-12-17T17:44:13.210Z,57.47
2022-12-17T17:46:41.366Z,62.07
2022-12-17T17:49:10.563Z,58.20
2022-12-17T17:54:30.048Z,60.80
2022-12-17T17:56:58.147Z,61.40
2022-12-17T17:59:33.235Z,57.33
2022-12-17T18:02:02.285Z,60.97
2022-12-17T18:04:30.506Z,58.17
2022-12-17T18:09:46.436Z,60.40
2022-12-17T18:12:32.291Z,68.63
2022-12-17T18:15:18.226Z,72.10
2022-12-17T18:17:47.568Z,65.10
2022-12-17T18:20:16.739Z,71.57
2022-12-17T18:22:46.307Z,57.70
2022-12-17T18:25:14.750Z,63.17
2022-12-17T18:27:42.475Z,54.93
2022-12-17T18:30:12.389Z,60.57
2022-12-17T18:32:40.046Z,64.60
2022-12-17T18:35:08.798Z,53.30
2022-12-17T18:37:36.419Z,57.73
2022-12-17T18:40:04.627Z,54.67
2022-12-17T18:42:49.969Z,46.97
2022-12-17T18:45:19.450Z,50.63
2022-12-17T18:47:47.225Z,72.20
2022-12-17T18:50:14.837Z,60.77
2022-12-17T18:52:42.439Z,67.30
2022-12-17T18:55:10.269Z,57.37
2022-12-17T18:57:38.311Z,57.20
2022-12-17T19:00:07.445Z,62.30
2022-12-17T19:02:36.507Z,72.67
2022-12-17T19:05:04.645Z,56.70
2022-12-17T19:07:32.828Z,68.30
2022-12-17T19:10:00.426Z,62.97
2022-12-17T19:12:28.129Z,63.10
2022-12-17T19:14:55.991Z,60.40
2022-12-17T19:17:23.621Z,70.30
2022-12-17T19:19:53.275Z,77.53
2022-12-17T19:22:20.833Z,68.63
2022-12-17T19:24:48.670Z,62.30
2022-12-17T19:27:16.239Z,62.80
2022-12-17T19:29:48.974Z,59.77
2022-12-17T19:32:17.113Z,66.73
2022-12-17T19:34:44.647Z,57.67
2022-12-17T19:37:14.288Z,70.37
2022-12-17T19:39:41.915Z,55.50
2022-12-17T19:42:25.181Z,70.30
2022-12-17T19:44:54.043Z,61.53
2022-12-17T19:47:22.296Z,59.60
2022-12-17T19:49:50.704Z,56.50
2022-12-17T19:52:19.648Z,57.73
2022-12-17T19:54:49.067Z,69.13
2022-12-17T19:57:16.749Z,64.90
2022-12-17T19:59:44.298Z,62.80
2022-12-17T20:02:13.084Z,66.20
2022-12-17T20:04:40.831Z,66.53
2022-12-17T20:07:09.137Z,65.23
2022-12-17T20:09:38.173Z,68.17
2022-12-17T20:12:06.108Z,62.63
2022-12-17T20:14:35.788Z,58.43
2022-12-17T20:17:05.035Z,61.10
2022-12-17T20:19:35.361Z,62.40
2022-12-17T20:22:05.223Z,64.10
2022-12-17T20:24:33.507Z,61.13
2022-12-17T20:27:02.664Z,57.47
2022-12-17T20:29:30.466Z,66.60
2022-12-17T20:31:58.487Z,68.20
2022-12-17T20:34:26.609Z,67.43
2022-12-17T20:36:55.286Z,55.20
2022-12-17T20:39:27.010Z,59.10
2022-12-17T20:41:55.943Z,57.50
2022-12-17T20:44:25.443Z,78.47
2022-12-17T20:46:53.142Z,58.50
2022-12-17T20:49:21.354Z,62.03
2022-12-17T20:51:48.948Z,61.43
2022-12-17T20:54:16.636Z,55.10
2022-12-17T20:56:44.330Z,58.57
2022-12-17T20:59:16.551Z,63.67
2022-12-17T21:01:49.126Z,69.00
2022-12-17T21:04:20.934Z,64.03
2022-12-17T21:06:49.771Z,65.10
2022-12-17T21:09:20.083Z,62.27
2022-12-17T21:11:47.886Z,58.03
2022-12-17T21:14:17.746Z,60.90
2022-12-17T21:16:48.260Z,64.00
2022-12-17T21:19:18.585Z,61.73
2022-12-17T21:21:46.452Z,53.30
2022-12-17T21:24:14.052Z,64.50
2022-12-17T21:26:44.599Z,63.73
2022-12-17T21:29:12.783Z,69.27
2022-12-17T21:31:42.232Z,59.20
2022-12-17T21:34:15.001Z,58.90
2022-12-17T21:36:43.822Z,71.90
2022-12-17T21:39:13.273Z,63.33
2022-12-17T21:41:44.533Z,59.87
2022-12-17T21:44:14.586Z,64.90
2022-12-17T21:46:44.041Z,54.27
2022-12-17T21:49:18.124Z,60.27
2022-12-17T21:51:46.461Z,58.93
2022-12-17T21:54:19.203Z,60.17
2022-12-17T21:56:48.041Z,57.40
2022-12-17T21:59:16.123Z,59.13
2022-12-17T22:01:43.840Z,63.60
2022-12-17T22:04:12.286Z,61.03
2022-12-17T22:06:44.848Z,52.30
2022-12-17T22:09:43.014Z,58.73
2022-12-17T22:12:16.935Z,62.70
2022-12-17T22:14:45.007Z,59.80
2022-12-17T22:17:12.533Z,64.33
2022-12-17T22:19:40.740Z,72.07
2022-12-17T22:22:09.976Z,63.50
2022-12-17T22:24:37.713Z,62.40
2022-12-17T22:27:09.542Z,73.23
2022-12-17T22:29:56.182Z,62.70
2022-12-17T22:32:40.712Z,58.07
2022-12-17T22:36:34.832Z,55.53
2022-12-17T22:43:27.412Z,66.47
2022-12-17T22:44:34.738Z,66.30
2022-12-17T22:44:42.340Z,62.90
2022-12-17T22:46:23.743Z,60.90
2022-12-17T22:48:51.374Z,58.50
2022-12-17T22:51:34.833Z,60.70
2022-12-17T22:54:11.718Z,66.87
2022-12-17T22:57:01.696Z,61.63
2022-12-17T22:59:30.333Z,69.40
2022-12-17T23:01:57.971Z,51.47
2022-12-17T23:04:26.100Z,59.83
2022-12-17T23:06:54.096Z,53.30
2022-12-17T23:09:24.412Z,61.90
2022-12-17T23:11:52.277Z,64.50
2022-12-17T23:14:20.536Z,56.07
2022-12-17T23:16:48.352Z,66.23
2022-12-17T23:19:16.579Z,58.40
2022-12-17T23:21:46.149Z,62.53
2022-12-17T23:24:14.184Z,63.67
2022-12-17T23:26:44.307Z,53.80
2022-12-17T23:29:19.354Z,61.37
2022-12-17T23:31:47.935Z,60.37
2022-12-17T23:34:15.640Z,61.40
2022-12-17T23:36:43.780Z,57.60
2022-12-17T23:39:11.511Z,79.80
2022-12-17T23:41:39.817Z,62.93
2022-12-17T23:44:09.077Z,64.70
2022-12-17T23:46:36.710Z,68.10
2022-12-17T23:49:05.331Z,68.27
2022-12-17T23:51:33.911Z,61.33
2022-12-17T23:54:01.716Z,62.80
2022-12-17T23:56:30.192Z,67.70
2022-12-17T23:58:59.315Z,54.57
